Valley Stream, NY (11581)

12:46 AM EDT on October 01, 2014 (GMT -0400)
Valley Stream | Change Station
CLOSE
Current Station
Personal Weather Station
Location: Valley Stream, NY
Elevation: 21 ft
Nearby Weather Stations

Elev 21 ft 40.66 °N, 73.69 °W | Updated 2 hours ago

Overcast
Overcast
64.9 °F
Feels Like 64.9 °F
N
2.9
Wind Variable Wind from NNE
Gusts 2.9 mph

Today
High -- | Low -- °F
--% Chance of Precip.
Yesterday
High -- | Low -- °F
Precip. -- in
6:51 AM 6:36 PM
Waxing Crescent, 43% visible
Pressure 30.00 in
Visibility 7.0 miles
Clouds Overcast 1500 ft
Dew Point 58 °F
Humidity 78%
Rainfall 0.02 in
Snow Depth Not available.
UV 0 out of 12
Pollen 1.80 out of 12
Air Quality Not available.
Flu Activity Not available.
METAR KJFK 010351Z 04006KT 7SM -RA OVC015 18/15 A2999 RMK AO2 RAB43 SLP157 P0000 T01780150 $

More Conditions Fewer Conditions

Pressure 30.00 in
Visibility 7.0 miles
Clouds Overcast 1500 ft
Dew Point 58 °F
Humidity 78%
Rainfall 0.02 in
Snow Depth Not available.
UV 0 out of 12
Pollen 1.80 out of 12
Air Quality Not available.
Flu Activity Not available.
METAR KJFK 010351Z 04006KT 7SM -RA OVC015 18/15 A2999 RMK AO2 RAB43 SLP157 P0000 T01780150 $

More Conditions Fewer Conditions

10-Day Weather Forecast

Almanac

Astronomy

Oct. 01, 2014 Rise Set
Actual Time 6:51 AM EDT 6:36 PM EDT
Civil Twilight 6:24 AM EDT 7:04 PM EDT
Nautical Twilight 5:52 AM EDT 7:35 PM EDT
Astronomical Twilight 5:20 AM EDT 8:07 PM EDT
Moon 1:51 PM EDT No Moon Set
Length of Visible Light 12h 40m
Length of Day
11h 45m
Tomorrow will be 2m 40s shorter.
Waxing Crescent, 43% of the Moon is Illuminated
Today
Waxing Crescent
Oct 1
First Quarter
Oct 8
Full
Oct 15
Last Quarter
Oct 23
New

Today's Extremes

State Highs State Lows

Community

WunderPhotos

Upload Photos

1,757,847 photos uploaded!

Nearby

Snow Depth

Station Depth Elevation
No new snow has been reported.

Earthquake Activity

City Distance Mag. Time & Date
No recent earthquake activity has been reported nearby.
Minimum magnitude displayed is 2.5.

Coastal Water Temperatures

Place Temperature
Sandy Hook, NJ 68.0 °F
The Battery, NY 69.1 °F
Bergen Point West Reach, NJ 69.1 °F
Kings Point, NY 66.9 °F

Nearby Weather Stations